Time;durP1;ratioP1;P1;durP2;ratioP2;P2;SDS_P1;SDS_P2;PMS_P1;PMS_P2;Temp;Humidity;BMP_temperature;BMP_pressure;BME280_temperature;BME280_humidity;BME280_pressure;Samples;Min_cycle;Max_cycle;Signal;HPM_P1;HPM_P2
2024/03/20 00:01:32;;;;;;;;;;;;;;;;;;5078504;28;19908;-69
2024/03/20 00:03:58;;;;;;;;;;;;;;;;;;5096674;28;19999;-69
2024/03/20 00:06:24;;;;;;;;;;;;;;;;;;5096667;28;19931;-69
2024/03/20 00:08:50;;;;;;;;;;;;;;;;;;5096576;28;20352;-70
2024/03/20 00:11:16;;;;;;;;;;;;;;;;;;5097154;28;19939;-69
2024/03/20 00:13:42;;;;;;;;;;;;;;;;;;5096004;28;19916;-69
2024/03/20 00:16:10;;;;;;;;;;;;;;;;;;5078243;28;19949;-69
2024/03/20 00:18:36;;;;;;;;;;;;;;;;;;5096355;28;19908;-69
2024/03/20 00:21:02;;;;;;;;;;;;;;;;;;5095368;28;19953;-69
2024/03/20 00:23:28;;;;;;;;;;;;;;;;;;5096809;28;19908;-69
2024/03/20 00:25:54;;;;;;;;;;;;;;;;;;5096264;28;19908;-69
2024/03/20 00:28:20;;;;;;;;;;;;;;;;;;5095832;28;19908;-69
2024/03/20 00:30:46;;;;;;;;;;;;;;;;;;5096017;28;19999;-69
2024/03/20 00:33:12;;;;;;;;;;;;;;;;;;5077822;28;19916;-69
2024/03/20 00:35:39;;;;;;;;;;;;;;;;;;5095705;28;19998;-70
2024/03/20 00:38:05;;;;;;;;;;;;;;;;;;5077826;28;20364;-69
2024/03/20 00:40:31;;;;;;;;;;;;;;;;;;5095897;28;20037;-70
2024/03/20 00:42:57;;;;;;;;;;;;;;;;;;5077328;28;20284;-70
2024/03/20 00:45:23;;;;;;;;;;;;;;;;;;5095845;28;19915;-69
2024/03/20 00:47:49;;;;;;;;;;;;;;;;;;5077650;28;19909;-69
2024/03/20 00:50:15;;;;;;;;;;;;;;;;;;5095466;28;20391;-70
2024/03/20 00:52:41;;;;;;;;;;;;;;;;;;5095611;28;19976;-70
2024/03/20 00:55:09;;;;;;;;;;;;;;;;;;5095309;28;19916;-70
2024/03/20 00:57:35;;;;;;;;;;;;;;;;;;5077461;28;19912;-70
2024/03/20 01:00:01;;;;;;;;;;;;;;;;;;5077473;28;20279;-70
2024/03/20 01:02:27;;;;;;;;;;;;;;;;;;5077004;28;20694;-70
2024/03/20 01:04:53;;;;;;;;;;;;;;;;;;5095514;28;20354;-70
2024/03/20 01:07:19;;;;;;;;;;;;;;;;;;5077317;28;19908;-70
2024/03/20 01:09:44;;;;;;;;;;;;;;;;;;5076751;28;19908;-70
2024/03/20 01:12:10;;;;;;;;;;;;;;;;;;5095247;28;19916;-70
2024/03/20 01:14:36;;;;;;;;;;;;;;;;;;5095827;28;19914;-70
2024/03/20 01:17:03;;;;;;;;;;;;;;;;;;5094862;28;20006;-70
2024/03/20 01:19:29;;;;;;;;;;;;;;;;;;5095210;28;19909;-70
2024/03/20 01:21:55;;;;;;;;;;;;;;;;;;5095172;28;19908;-70
2024/03/20 01:24:21;;;;;;;;;;;;;;;;;;5094696;28;19912;-70
2024/03/20 01:26:46;;;;;;;;;;;;;;;;;;5095045;28;20004;-70
2024/03/20 01:29:12;;;;;;;;;;;;;;;;;;5095037;28;19915;-70
2024/03/20 01:31:38;;;;;;;;;;;;;;;;;;5072674;28;19920;-71
2024/03/20 01:34:04;;;;;;;;;;;;;;;;;;5073736;28;19959;-70
2024/03/20 01:36:30;;;;;;;;;;;;;;;;;;5074624;28;19962;-70
2024/03/20 01:38:56;;;;;;;;;;;;;;;;;;5072952;28;19909;-71
2024/03/20 01:41:22;;;;;;;;;;;;;;;;;;5075085;28;19935;-70
2024/03/20 01:43:48;;;;;;;;;;;;;;;;;;5074419;28;19909;-70
2024/03/20 01:46:14;;;;;;;;;;;;;;;;;;5074062;28;19908;-70
2024/03/20 01:48:40;;;;;;;;;;;;;;;;;;5074349;28;19909;-70
2024/03/20 01:51:06;;;;;;;;;;;;;;;;;;5074898;28;19909;-70
2024/03/20 01:53:32;;;;;;;;;;;;;;;;;;5073913;28;19916;-70
2024/03/20 01:55:58;;;;;;;;;;;;;;;;;;5074289;28;20357;-70
2024/03/20 01:58:24;;;;;;;;;;;;;;;;;;5074043;28;19909;-72
2024/03/20 02:00:50;;;;;;;;;;;;;;;;;;5072958;28;19908;-70
2024/03/20 02:03:16;;;;;;;;;;;;;;;;;;5072835;28;19914;-70
2024/03/20 02:05:42;;;;;;;;;;;;;;;;;;5073819;28;19944;-70
2024/03/20 02:08:08;;;;;;;;;;;;;;;;;;5074443;28;19916;-70
2024/03/20 02:10:34;;;;;;;;;;;;;;;;;;5074132;28;19909;-70
2024/03/20 02:13:00;;;;;;;;;;;;;;;;;;5072404;28;19974;-70
2024/03/20 02:15:25;;;;;;;;;;;;;;;;;;5074019;28;20272;-70
2024/03/20 02:17:51;;;;;;;;;;;;;;;;;;5072768;28;19913;-70
2024/03/20 02:20:17;;;;;;;;;;;;;;;;;;5073660;28;19908;-70
2024/03/20 02:22:44;;;;;;;;;;;;;;;;;;5072656;28;20295;-70
2024/03/20 02:25:09;;;;;;;;;;;;;;;;;;5072604;28;19909;-70
2024/03/20 02:27:36;;;;;;;;;;;;;;;;;;5073498;28;19962;-70
2024/03/20 02:30:02;;;;;;;;;;;;;;;;;;5073853;28;20055;-70
2024/03/20 02:32:28;;;;;;;;;;;;;;;;;;5072293;28;20311;-71
2024/03/20 02:34:54;;;;;;;;;;;;;;;;;;5073390;28;19908;-70
2024/03/20 02:37:19;;;;;;;;;;;;;;;;;;5073812;28;20345;-70
2024/03/20 02:39:45;;;;;;;;;;;;;;;;;;5073657;28;19909;-70
2024/03/20 02:42:12;;;;;;;;;;;;;;;;;;5073396;28;19919;-70
2024/03/20 02:44:38;;;;;;;;;;;;;;;;;;5073415;28;19908;-70
2024/03/20 02:47:04;;;;;;;;;;;;;;;;;;5072426;28;19909;-70
2024/03/20 02:49:29;;;;;;;;;;;;;;;;;;5071999;28;19915;-71
2024/03/20 02:51:55;;;;;;;;;;;;;;;;;;5073515;28;19945;-71
2024/03/20 02:54:21;;;;;;;;;;;;;;;;;;5073596;28;19958;-70
2024/03/20 02:56:47;;;;;;;;;;;;;;;;;;5073267;28;19988;-70
2024/03/20 02:59:13;;;;;;;;;;;;;;;;;;5073547;28;19916;-70
2024/03/20 03:01:39;;;;;;;;;;;;;;;;;;5073649;28;19915;-70
2024/03/20 03:04:06;;;;;;;;;;;;;;;;;;5073077;28;19909;-70
2024/03/20 03:06:32;;;;;;;;;;;;;;;;;;5073697;28;19919;-70
2024/03/20 03:08:57;;;;;;;;;;;;;;;;;;5073273;28;19954;-71
2024/03/20 03:11:23;;;;;;;;;;;;;;;;;;5073399;28;19908;-70
2024/03/20 03:13:49;;;;;;;;;;;;;;;;;;5073291;28;19916;-70
2024/03/20 03:16:15;;;;;;;;;;;;;;;;;;5073181;28;19909;-70
2024/03/20 03:18:41;;;;;;;;;;;;;;;;;;5072002;28;19913;-70
2024/03/20 03:21:07;;;;;;;;;;;;;;;;;;5073643;28;19999;-70
2024/03/20 03:23:33;;;;;;;;;;;;;;;;;;5072977;28;19908;-70
2024/03/20 03:25:59;;;;;;;;;;;;;;;;;;5073282;28;19923;-70
2024/03/20 03:28:25;;;;;;;;;;;;;;;;;;5073380;28;19944;-70
2024/03/20 03:30:51;;;;;;;;;;;;;;;;;;5073478;28;19935;-70
2024/03/20 03:33:17;;;;;;;;;;;;;;;;;;5093330;28;19916;-70
2024/03/20 03:35:43;;;;;;;;;;;;;;;;;;5093773;28;19953;-70
2024/03/20 03:38:09;;;;;;;;;;;;;;;;;;5093020;28;19908;-70
2024/03/20 03:40:35;;;;;;;;;;;;;;;;;;5093475;28;19960;-70
2024/03/20 03:43:01;;;;;;;;;;;;;;;;;;5093288;28;19908;-70
2024/03/20 03:45:26;;;;;;;;;;;;;;;;;;5092935;28;19915;-70
2024/03/20 03:47:52;;;;;;;;;;;;;;;;;;5093328;28;19908;-70
2024/03/20 03:50:18;;;;;;;;;;;;;;;;;;5075123;28;19947;-70
2024/03/20 03:52:44;;;;;;;;;;;;;;;;;;5092917;28;19916;-70
2024/03/20 03:55:10;;;;;;;;;;;;;;;;;;5093580;28;19915;-70
2024/03/20 03:57:36;;;;;;;;;;;;;;;;;;5096334;28;19921;-70
2024/03/20 04:00:03;;;;;;;;;;;;;;;;;;5096453;28;20003;-71
2024/03/20 04:02:31;;;;;;;;;;;;;;;;;;5096683;28;19908;-70
2024/03/20 04:04:57;;;;;;;;;;;;;;;;;;5078526;28;20006;-70
2024/03/20 04:07:23;;;;;;;;;;;;;;;;;;5096317;28;19915;-70
2024/03/20 04:09:49;;;;;;;;;;;;;;;;;;5096542;28;19908;-70
2024/03/20 04:12:15;;;;;;;;;;;;;;;;;;5096084;28;20003;-70
2024/03/20 04:14:41;;;;;;;;;;;;;;;;;;5096487;28;20412;-70
2024/03/20 04:17:07;;;;;;;;;;;;;;;;;;5096503;28;19908;-70
2024/03/20 04:19:34;;;;;;;;;;;;;;;;;;5096035;28;19908;-70
2024/03/20 04:22:00;;;;;;;;;;;;;;;;;;5078178;28;19930;-70
2024/03/20 04:24:26;;;;;;;;;;;;;;;;;;5096297;28;19908;-70
2024/03/20 04:26:52;;;;;;;;;;;;;;;;;;5096124;28;19915;-70
2024/03/20 04:29:18;;;;;;;;;;;;;;;;;;5077964;28;19915;-70
2024/03/20 04:31:44;;;;;;;;;;;;;;;;;;5096021;28;19924;-70
2024/03/20 04:34:10;;;;;;;;;;;;;;;;;;5095578;28;20311;-70
2024/03/20 04:36:37;;;;;;;;;;;;;;;;;;5096111;28;20012;-71
2024/03/20 04:39:06;;;;;;;;;;;;;;;;;;5096037;28;19915;-70
2024/03/20 04:41:32;;;;;;;;;;;;;;;;;;5095665;28;19930;-71
2024/03/20 04:43:58;;;;;;;;;;;;;;;;;;5077760;28;20400;-70
2024/03/20 04:46:24;;;;;;;;;;;;;;;;;;5096026;28;20383;-72
2024/03/20 04:48:50;;;;;;;;;;;;;;;;;;5095506;28;20376;-71
2024/03/20 04:51:16;;;;;;;;;;;;;;;;;;5077670;28;19915;-71
2024/03/20 04:53:42;;;;;;;;;;;;;;;;;;5095572;28;19924;-71
2024/03/20 04:56:08;;;;;;;;;;;;;;;;;;5095386;28;19908;-71
2024/03/20 04:58:34;;;;;;;;;;;;;;;;;;5095617;28;19923;-71
2024/03/20 05:01:00;;;;;;;;;;;;;;;;;;5095566;28;19908;-71
2024/03/20 05:03:27;;;;;;;;;;;;;;;;;;5095135;28;19912;-71
2024/03/20 05:05:53;;;;;;;;;;;;;;;;;;5095543;28;19915;-71
2024/03/20 05:08:19;;;;;;;;;;;;;;;;;;5094926;28;19908;-68
2024/03/20 05:10:44;;;;;;;;;;;;;;;;;;5095428;28;20272;-71
2024/03/20 05:13:10;;;;;;;;;;;;;;;;;;5095207;28;19974;-71
2024/03/20 05:15:36;;;;;;;;;;;;;;;;;;5094927;28;19908;-69
2024/03/20 05:18:02;;;;;;;;;;;;;;;;;;5095226;28;19908;-71
2024/03/20 05:20:28;;;;;;;;;;;;;;;;;;5095172;28;19908;-71
2024/03/20 05:22:54;;;;;;;;;;;;;;;;;;5076624;28;19908;-71
2024/03/20 05:25:20;;;;;;;;;;;;;;;;;;5095177;28;19908;-71
2024/03/20 05:27:46;;;;;;;;;;;;;;;;;;5076918;28;20383;-71
2024/03/20 05:30:12;;;;;;;;;;;;;;;;;;5076462;28;19908;-70
2024/03/20 05:32:38;;;;;;;;;;;;;;;;;;5094823;28;20287;-71
2024/03/20 05:35:04;;;;;;;;;;;;;;;;;;5076771;28;19908;-71
2024/03/20 05:37:30;;;;;;;;;;;;;;;;;;5094650;28;19995;-70
2024/03/20 05:39:56;;;;;;;;;;;;;;;;;;5095290;28;19908;-71
2024/03/20 05:42:22;;;;;;;;;;;;;;;;;;5094659;28;19962;-70
2024/03/20 05:44:48;;;;;;;;;;;;;;;;;;5094312;28;19912;-70
2024/03/20 05:47:14;;;;;;;;;;;;;;;;;;5094721;28;19908;-70
2024/03/20 05:49:40;;;;;;;;;;;;;;;;;;5094584;28;19915;-71
2024/03/20 05:52:06;;;;;;;;;;;;;;;;;;5094284;28;19908;-70
2024/03/20 05:54:32;;;;;;;;;;;;;;;;;;5094563;28;19912;-71
2024/03/20 05:56:58;;;;;;;;;;;;;;;;;;5076434;28;19915;-71
2024/03/20 05:59:24;;;;;;;;;;;;;;;;;;5094087;28;20304;-70
2024/03/20 06:01:50;;;;;;;;;;;;;;;;;;5094436;28;20398;-70
2024/03/20 06:04:16;;;;;;;;;;;;;;;;;;5094569;28;19964;-70
2024/03/20 06:06:42;;;;;;;;;;;;;;;;;;5075841;28;20392;-71
2024/03/20 06:09:13;;;;;;;;;;;;;;;;;;5076213;28;19916;-71
2024/03/20 06:11:39;;;;;;;;;;;;;;;;;;5094834;28;19946;-71
2024/03/20 06:14:05;;;;;;;;;;;;;;;;;;5094170;28;19997;-71
2024/03/20 06:16:31;;;;;;;;;;;;;;;;;;5094210;28;19912;-70
2024/03/20 06:18:57;;;;;;;;;;;;;;;;;;5093072;28;19918;-70
2024/03/20 06:21:23;;;;;;;;;;;;;;;;;;5093625;28;19919;-70
2024/03/20 06:23:49;;;;;;;;;;;;;;;;;;5092471;28;19909;-70
2024/03/20 06:26:15;;;;;;;;;;;;;;;;;;5078242;28;20003;-70
2024/03/20 06:28:41;;;;;;;;;;;;;;;;;;5084282;28;19981;-70
2024/03/20 06:31:07;;;;;;;;;;;;;;;;;;5078855;28;19916;-68
2024/03/20 06:33:34;;;;;;;;;;;;;;;;;;5073085;28;20028;-68
2024/03/20 06:36:00;;;;;;;;;;;;;;;;;;5089906;28;19915;-68
2024/03/20 06:38:26;;;;;;;;;;;;;;;;;;5088196;28;19912;-67
2024/03/20 06:40:52;;;;;;;;;;;;;;;;;;5084703;28;20352;-67
2024/03/20 06:43:18;;;;;;;;;;;;;;;;;;5090564;28;19919;-66
2024/03/20 06:45:50;;;;;;;;;;;;;;;;;;5072871;28;19960;-66
2024/03/20 06:48:17;;;;;;;;;;;;;;;;;;5088172;28;19916;-66
2024/03/20 06:50:44;;;;;;;;;;;;;;;;;;5079731;28;19912;-66
2024/03/20 06:53:10;;;;;;;;;;;;;;;;;;5088484;28;19934;-66
2024/03/20 06:55:36;;;;;;;;;;;;;;;;;;5091732;28;19912;-66
2024/03/20 06:58:03;;;;;;;;;;;;;;;;;;5074039;28;19908;-67
2024/03/20 07:00:31;;;;;;;;;;;;;;;;;;5088124;28;20050;-66
2024/03/20 07:03:00;;;;;;;;;;;;;;;;;;5075300;28;19909;-67
2024/03/20 07:05:27;;;;;;;;;;;;;;;;;;5090842;28;19995;-67
2024/03/20 07:07:54;;;;;;;;;;;;;;;;;;5089993;28;20261;-68
2024/03/20 07:10:41;;;;;;;;;;;;;;;;;;5086247;28;20359;-69
2024/03/20 07:13:07;;;;;;;;;;;;;;;;;;5087402;28;20026;-68
2024/03/20 07:15:34;;;;;;;;;;;;;;;;;;5079119;28;20508;-68
2024/03/20 07:18:06;;;;;;;;;;;;;;;;;;5081829;28;19923;-68
2024/03/20 07:20:35;;;;;;;;;;;;;;;;;;5086485;28;20049;-67
2024/03/20 07:23:07;;;;;;;;;;;;;;;;;;5062673;28;21254;-68
2024/03/20 07:25:43;;;;;;;;;;;;;;;;;;5074199;28;19920;-67
2024/03/20 07:28:12;;;;;;;;;;;;;;;;;;5062781;28;20432;-69
2024/03/20 07:30:40;;;;;;;;;;;;;;;;;;5069481;28;20593;-68
2024/03/20 07:33:26;;;;;;;;;;;;;;;;;;5074964;28;20015;-69
2024/03/20 07:35:55;;;;;;;;;;;;;;;;;;5094668;28;19914;-68
2024/03/20 07:38:24;;;;;;;;;;;;;;;;;;5093970;28;19908;-67
2024/03/20 07:40:51;;;;;;;;;;;;;;;;;;5096980;28;20287;-68
2024/03/20 07:43:26;;;;;;;;;;;;;;;;;;5086750;28;20285;-68
2024/03/20 07:45:53;;;;;;;;;;;;;;;;;;5088355;28;19923;-68
2024/03/20 07:48:18;;;;;;;;;;;;;;;;;;5096665;28;19909;-67
2024/03/20 07:50:44;;;;;;;;;;;;;;;;;;5095626;28;19953;-67
2024/03/20 07:53:10;;;;;;;;;;;;;;;;;;5086047;28;20004;-67
2024/03/20 07:55:36;;;;;;;;;;;;;;;;;;5095408;28;19919;-68
2024/03/20 07:58:02;;;;;;;;;;;;;;;;;;5093939;28;20352;-68
2024/03/20 08:00:28;;;;;;;;;;;;;;;;;;5074333;28;20272;-71
2024/03/20 08:02:54;;;;;;;;;;;;;;;;;;5055233;28;20246;-67
2024/03/20 08:05:20;;;;;;;;;;;;;;;;;;5064859;28;19909;-68
2024/03/20 08:07:46;;;;;;;;;;;;;;;;;;5093711;28;19915;-68
2024/03/20 08:10:12;;;;;;;;;;;;;;;;;;5093430;28;19912;-69
2024/03/20 08:12:38;;;;;;;;;;;;;;;;;;5083982;28;20641;-67
2024/03/20 08:15:04;;;;;;;;;;;;;;;;;;5090722;28;19909;-67
2024/03/20 08:17:30;;;;;;;;;;;;;;;;;;5090794;28;20007;-68
2024/03/20 08:19:56;;;;;;;;;;;;;;;;;;5090943;28;20015;-68
2024/03/20 08:22:22;;;;;;;;;;;;;;;;;;5091829;28;19912;-67
2024/03/20 08:24:48;;;;;;;;;;;;;;;;;;5090421;28;19912;-66
2024/03/20 08:27:15;;;;;;;;;;;;;;;;;;5090813;28;19908;-67
2024/03/20 08:29:41;;;;;;;;;;;;;;;;;;5091468;28;19923;-67
2024/03/20 08:32:09;;;;;;;;;;;;;;;;;;5088669;28;19948;-67
2024/03/20 08:34:35;;;;;;;;;;;;;;;;;;5085517;28;19995;-69
2024/03/20 08:37:01;;;;;;;;;;;;;;;;;;5071663;28;19998;-69
2024/03/20 08:39:27;;;;;;;;;;;;;;;;;;5093276;28;20375;-69
2024/03/20 08:41:53;;;;;;;;;;;;;;;;;;5091901;28;20329;-69
2024/03/20 08:44:19;;;;;;;;;;;;;;;;;;5071901;28;20003;-68
2024/03/20 08:46:45;;;;;;;;;;;;;;;;;;5090880;28;19915;-68
2024/03/20 08:49:11;;;;;;;;;;;;;;;;;;5091063;28;19908;-70
2024/03/20 08:51:37;;;;;;;;;;;;;;;;;;5093171;28;19908;-69
2024/03/20 08:54:02;;;;;;;;;;;;;;;;;;5075335;28;19916;-70
2024/03/20 08:56:28;;;;;;;;;;;;;;;;;;5066270;28;20001;-69
2024/03/20 08:58:54;;;;;;;;;;;;;;;;;;5090025;28;19912;-70
2024/03/20 09:01:20;;;;;;;;;;;;;;;;;;5094213;28;20002;-69
2024/03/20 09:03:46;;;;;;;;;;;;;;;;;;5076240;28;20383;-69
2024/03/20 09:06:13;;;;;;;;;;;;;;;;;;5089717;28;19912;-70
2024/03/20 09:08:39;;;;;;;;;;;;;;;;;;5075547;28;19911;-70
2024/03/20 09:11:05;;;;;;;;;;;;;;;;;;5076181;28;19959;-70
2024/03/20 09:13:32;;;;;;;;;;;;;;;;;;5071229;28;19920;-71
2024/03/20 09:15:58;;;;;;;;;;;;;;;;;;5072783;28;19952;-69
2024/03/20 09:18:24;;;;;;;;;;;;;;;;;;5054068;28;19962;-70
2024/03/20 09:20:50;;;;;;;;;;;;;;;;;;5058740;28;19912;-69
2024/03/20 09:23:17;;;;;;;;;;;;;;;;;;5092045;28;19912;-68
2024/03/20 09:25:44;;;;;;;;;;;;;;;;;;5092572;28;19912;-67
2024/03/20 09:28:11;;;;;;;;;;;;;;;;;;5094085;28;19931;-69
2024/03/20 09:30:37;;;;;;;;;;;;;;;;;;5092148;28;19912;-68
2024/03/20 09:33:03;;;;;;;;;;;;;;;;;;5092255;28;20355;-69
2024/03/20 09:35:29;;;;;;;;;;;;;;;;;;5091039;28;19944;-68
2024/03/20 09:37:55;;;;;;;;;;;;;;;;;;5093313;28;20291;-68
2024/03/20 09:40:25;;;;;;;;;;;;;;;;;;5093154;28;20313;-73
2024/03/20 09:42:51;;;;;;;;;;;;;;;;;;5091113;28;19912;-73
2024/03/20 09:45:18;;;;;;;;;;;;;;;;;;5084194;28;19970;-73
2024/03/20 09:47:44;;;;;;;;;;;;;;;;;;5074110;28;19974;-72
2024/03/20 09:50:09;;;;;;;;;;;;;;;;;;5058733;28;19948;-73
2024/03/20 09:52:36;;;;;;;;;;;;;;;;;;5064287;28;19916;-74
2024/03/20 09:55:02;;;;;;;;;;;;;;;;;;5062463;28;19963;-74
2024/03/20 09:57:29;;;;;;;;;;;;;;;;;;5079785;28;19915;-71
2024/03/20 09:59:55;;;;;;;;;;;;;;;;;;5090314;28;20264;-71
2024/03/20 10:02:26;;;;;;;;;;;;;;;;;;5060121;28;19912;-72
2024/03/20 10:04:52;;;;;;;;;;;;;;;;;;5068946;28;19941;-72
2024/03/20 10:07:18;;;;;;;;;;;;;;;;;;5066865;28;20356;-71
2024/03/20 10:09:47;;;;;;;;;;;;;;;;;;5075281;28;20408;-69
2024/03/20 10:12:20;;;;;;;;;;;;;;;;;;5069641;28;19917;-70
2024/03/20 10:14:47;;;;;;;;;;;;;;;;;;5053946;28;19958;-69
2024/03/20 10:17:14;;;;;;;;;;;;;;;;;;5072275;28;20332;-68
2024/03/20 10:19:43;;;;;;;;;;;;;;;;;;5074865;28;19995;-70
2024/03/20 10:22:09;;;;;;;;;;;;;;;;;;5084191;28;19995;-69
2024/03/20 10:24:38;;;;;;;;;;;;;;;;;;5084221;28;20277;-71
2024/03/20 10:27:04;;;;;;;;;;;;;;;;;;5054709;28;20380;-70
2024/03/20 10:29:30;;;;;;;;;;;;;;;;;;5089161;28;19908;-70
2024/03/20 10:31:56;;;;;;;;;;;;;;;;;;5071482;28;19927;-71
2024/03/20 10:34:22;;;;;;;;;;;;;;;;;;5089029;28;19916;-71
2024/03/20 10:36:47;;;;;;;;;;;;;;;;;;5089613;28;19970;-69
2024/03/20 10:39:17;;;;;;;;;;;;;;;;;;5089088;28;19908;-70
2024/03/20 10:41:43;;;;;;;;;;;;;;;;;;5090137;28;19912;-68
2024/03/20 10:44:10;;;;;;;;;;;;;;;;;;5074206;28;20027;-69
2024/03/20 10:46:36;;;;;;;;;;;;;;;;;;5072651;28;19909;-68
2024/03/20 10:49:02;;;;;;;;;;;;;;;;;;5090730;28;19915;-67
2024/03/20 10:51:28;;;;;;;;;;;;;;;;;;5071931;28;20437;-67
2024/03/20 10:53:54;;;;;;;;;;;;;;;;;;5091166;28;20093;-67
2024/03/20 10:56:20;;;;;;;;;;;;;;;;;;5073737;28;19915;-68
2024/03/20 10:58:46;;;;;;;;;;;;;;;;;;5091730;28;20037;-68
2024/03/20 11:01:12;;;;;;;;;;;;;;;;;;5091840;28;20054;-67
2024/03/20 11:03:41;;;;;;;;;;;;;;;;;;5073916;28;19908;-67
2024/03/20 11:06:07;;;;;;;;;;;;;;;;;;5091876;28;20287;-68
2024/03/20 11:08:33;;;;;;;;;;;;;;;;;;5094818;28;19912;-67
2024/03/20 11:10:59;;;;;;;;;;;;;;;;;;5074391;28;19962;-69
2024/03/20 11:13:25;;;;;;;;;;;;;;;;;;5093234;28;19944;-68
2024/03/20 11:15:51;;;;;;;;;;;;;;;;;;5093754;28;20061;-69
2024/03/20 11:18:17;;;;;;;;;;;;;;;;;;5089760;28;19912;-66
2024/03/20 11:20:45;;;;;;;;;;;;;;;;;;5081151;28;19915;-66
2024/03/20 11:23:11;;;;;;;;;;;;;;;;;;5092400;28;19936;-68
2024/03/20 11:25:36;;;;;;;;;;;;;;;;;;5076415;28;19959;-69
2024/03/20 11:29:58;;;;;;;;;;;;;;;;;;5069665;27;19924;-69
2024/03/20 11:36:30;;;;;;;;;;;;;;;;;;5128695;27;19916;-69
2024/03/20 11:39:21;;;;;;;;;;;;;;;;;;5109193;27;19923;-70
2024/03/20 11:41:47;;;;;;;;;;;;;;;;;;5109509;28;19912;-69
2024/03/20 11:45:00;;;;;;;;;;;;;;;;;;5108193;27;19916;-70
2024/03/20 11:47:26;;;;;;;;;;;;;;;;;;5104615;28;19912;-68
2024/03/20 11:49:52;;;;;;;;;;;;;;;;;;5088008;28;19912;-68
2024/03/20 11:52:18;;;;;;;;;;;;;;;;;;5093489;28;19908;-70
2024/03/20 11:54:44;;;;;;;;;;;;;;;;;;5110467;28;20330;-70
2024/03/20 11:58:48;;;;;;;;;;;;;;;;;;5110222;27;19916;-70
2024/03/20 12:02:06;;;;;;;;;;;;;;;;;;5070003;28;19919;-69
2024/03/20 12:06:48;;;;;;;;;;;;;;;;;;5089842;27;19927;-70
2024/03/20 12:15:41;;;;;;;;;;;;;;;;;;5109680;27;20375;-70
2024/03/20 12:20:37;;;;;;;;;;;;;;;;;;5090104;27;19920;-71
2024/03/20 12:23:07;;;;;;;;;;;;;;;;;;5089770;28;19919;-71
2024/03/20 12:25:33;;;;;;;;;;;;;;;;;;5088247;28;19920;-71
2024/03/20 12:31:00;;;;;;;;;;;;;;;;;;5114063;27;19916;-70
2024/03/20 12:36:24;;;;;;;;;;;;;;;;;;5110314;27;19924;-69
2024/03/20 12:38:51;;;;;;;;;;;;;;;;;;5105121;28;20007;-72
2024/03/20 12:43:10;;;;;;;;;;;;;;;;;;5134902;27;19916;-69
2024/03/20 12:45:36;;;;;;;;;;;;;;;;;;5111938;28;19919;-69
2024/03/20 12:48:03;;;;;;;;;;;;;;;;;;5123299;28;19908;-71
2024/03/20 12:50:29;;;;;;;;;;;;;;;;;;5090325;28;20007;-71
2024/03/20 12:52:55;;;;;;;;;;;;;;;;;;5125358;28;20651;-70
2024/03/20 12:55:43;;;;;;;;;;;;;;;;;;5089144;27;20298;-70
2024/03/20 12:59:57;;;;;;;;;;;;;;;;;;5119454;27;19919;-70
2024/03/20 13:02:23;;;;;;;;;;;;;;;;;;5124557;28;20405;-71
2024/03/20 13:04:49;;;;;;;;;;;;;;;;;;5104289;28;19920;-70
2024/03/20 13:12:06;;;;;;;;;;;;;;;;;;5124825;27;20384;-70
2024/03/20 13:14:33;;;;;;;;;;;;;;;;;;5121688;28;19915;-70
2024/03/20 13:16:59;;;;;;;;;;;;;;;;;;5122323;27;19915;-70
2024/03/20 13:22:51;;;;;;;;;;;;;;;;;;5150415;27;19964;-70
2024/03/20 13:25:33;;;;;;;;;;;;;;;;;;5151006;27;19915;-71
2024/03/20 13:28:01;;;;;;;;;;;;;;;;;;5121586;27;19911;-73
2024/03/20 13:30:27;;;;;;;;;;;;;;;;;;5143702;27;19919;-69
2024/03/20 13:32:54;;;;;;;;;;;;;;;;;;5161070;27;19918;-71
2024/03/20 13:35:22;;;;;;;;;;;;;;;;;;5161930;27;19954;-70
2024/03/20 13:37:50;;;;;;;;;;;;;;;;;;5138707;27;19934;-71
2024/03/20 13:40:28;;;;;;;;;;;;;;;;;;5151154;27;19911;-70
2024/03/20 13:44:01;;;;;;;;;;;;;;;;;;5143331;27;20378;-71
2024/03/20 13:45:52;;;;;;;;;;;;;;;;;;5157368;27;19959;-70
2024/03/20 13:48:17;;;;;;;;;;;;;;;;;;5165910;27;20367;-71
2024/03/20 13:51:31;;;;;;;;;;;;;;;;;;5139708;27;19912;-70
2024/03/20 13:53:57;;;;;;;;;;;;;;;;;;5112780;28;19918;-68
2024/03/20 13:56:23;;;;;;;;;;;;;;;;;;5114168;27;19915;-71
2024/03/20 14:03:33;;;;;;;;;;;;;;;;;;5108506;27;19923;-71
2024/03/20 14:05:59;;;;;;;;;;;;;;;;;;5110191;28;20445;-70
2024/03/20 14:08:26;;;;;;;;;;;;;;;;;;5109175;28;19923;-71
2024/03/20 14:10:52;;;;;;;;;;;;;;;;;;5110249;28;20268;-72
2024/03/20 14:13:18;;;;;;;;;;;;;;;;;;5109805;28;19965;-70
2024/03/20 14:16:31;;;;;;;;;;;;;;;;;;5111619;27;19922;-71
2024/03/20 14:18:57;;;;;;;;;;;;;;;;;;5110585;28;19957;-71
2024/03/20 14:21:25;;;;;;;;;;;;;;;;;;5111324;28;20330;-71
2024/03/20 14:23:53;;;;;;;;;;;;;;;;;;5110993;28;20407;-71
2024/03/20 14:26:22;;;;;;;;;;;;;;;;;;5110776;28;19912;-71
2024/03/20 14:28:48;;;;;;;;;;;;;;;;;;5109473;28;19908;-71
2024/03/20 14:31:14;;;;;;;;;;;;;;;;;;5110847;28;19908;-72
2024/03/20 14:33:40;;;;;;;;;;;;;;;;;;5111119;28;20284;-72
2024/03/20 14:36:06;;;;;;;;;;;;;;;;;;5109752;28;19916;-72
2024/03/20 14:40:58;;;;;;;;;;;;;;;;;;5090042;27;19917;-71
2024/03/20 14:43:24;;;;;;;;;;;;;;;;;;5090022;28;20011;-72
2024/03/20 14:45:50;;;;;;;;;;;;;;;;;;5088244;28;19915;-72
2024/03/20 14:48:16;;;;;;;;;;;;;;;;;;5090032;28;20229;-72
2024/03/20 14:51:37;;;;;;;;;;;;;;;;;;5110409;27;19916;-70
2024/03/20 14:54:03;;;;;;;;;;;;;;;;;;5110051;28;19916;-71
2024/03/20 14:56:29;;;;;;;;;;;;;;;;;;5110136;28;19908;-71
2024/03/20 14:58:55;;;;;;;;;;;;;;;;;;5111549;28;19947;-71
2024/03/20 15:01:21;;;;;;;;;;;;;;;;;;5110999;28;19908;-72
2024/03/20 15:03:49;;;;;;;;;;;;;;;;;;5110490;28;19908;-72
2024/03/20 15:06:15;;;;;;;;;;;;;;;;;;5111075;28;20270;-72
2024/03/20 15:08:40;;;;;;;;;;;;;;;;;;5111807;28;19999;-73
2024/03/20 15:11:07;;;;;;;;;;;;;;;;;;5104500;28;19954;-71
2024/03/20 15:13:33;;;;;;;;;;;;;;;;;;5110890;28;19912;-72
2024/03/20 15:15:59;;;;;;;;;;;;;;;;;;5110740;28;19915;-71
2024/03/20 15:18:25;;;;;;;;;;;;;;;;;;5111176;28;19949;-72
2024/03/20 15:22:52;;;;;;;;;;;;;;;;;;5091555;27;20364;-72
2024/03/20 15:25:18;;;;;;;;;;;;;;;;;;5091244;28;20388;-72
2024/03/20 15:27:44;;;;;;;;;;;;;;;;;;5090781;28;19915;-72
2024/03/20 15:30:10;;;;;;;;;;;;;;;;;;5091491;28;19919;-72
2024/03/20 15:33:32;;;;;;;;;;;;;;;;;;5153062;27;19998;-71
2024/03/20 15:35:58;;;;;;;;;;;;;;;;;;5152377;27;19934;-72
2024/03/20 15:38:23;;;;;;;;;;;;;;;;;;5152820;27;20371;-72
2024/03/20 15:40:50;;;;;;;;;;;;;;;;;;5153414;27;20311;-72
2024/03/20 15:45:49;;;;;;;;;;;;;;;;;;5111865;27;19922;-70
2024/03/20 15:48:15;;;;;;;;;;;;;;;;;;5111674;28;19999;-70
2024/03/20 15:50:42;;;;;;;;;;;;;;;;;;5111162;28;20401;-70
2024/03/20 15:53:09;;;;;;;;;;;;;;;;;;5111823;28;19912;-70
2024/03/20 15:58:06;;;;;;;;;;;;;;;;;;5091320;27;19923;-71
2024/03/20 16:00:33;;;;;;;;;;;;;;;;;;5091253;28;20284;-71
2024/03/20 16:02:59;;;;;;;;;;;;;;;;;;5090828;28;19934;-72
2024/03/20 16:05:26;;;;;;;;;;;;;;;;;;5090979;28;19999;-70
2024/03/20 16:09:46;;;;;;;;;;;;;;;;;;5152620;27;20672;-70
2024/03/20 16:12:14;;;;;;;;;;;;;;;;;;5152726;27;20260;-71
2024/03/20 16:14:40;;;;;;;;;;;;;;;;;;5152957;27;19907;-71
2024/03/20 16:17:09;;;;;;;;;;;;;;;;;;5138804;27;19913;-71
2024/03/20 16:19:35;;;;;;;;;;;;;;;;;;5109701;28;20383;-71
2024/03/20 16:22:01;;;;;;;;;;;;;;;;;;5124793;27;19991;-71
2024/03/20 16:24:27;;;;;;;;;;;;;;;;;;5151181;27;19912;-71
2024/03/20 16:26:53;;;;;;;;;;;;;;;;;;5151862;27;19908;-71
2024/03/20 16:29:32;;;;;;;;;;;;;;;;;;5121915;27;20375;-72
2024/03/20 16:31:58;;;;;;;;;;;;;;;;;;5131401;27;19912;-72
2024/03/20 16:34:24;;;;;;;;;;;;;;;;;;5131637;27;19907;-71
2024/03/20 16:36:50;;;;;;;;;;;;;;;;;;5131739;27;19914;-72
2024/03/20 16:39:16;;;;;;;;;;;;;;;;;;5131138;27;19908;-71
2024/03/20 16:41:42;;;;;;;;;;;;;;;;;;5131843;27;19915;-71
2024/03/20 16:44:08;;;;;;;;;;;;;;;;;;5130451;28;19952;-71
2024/03/20 16:46:36;;;;;;;;;;;;;;;;;;5131257;27;19911;-71
2024/03/20 16:49:02;;;;;;;;;;;;;;;;;;5130196;28;19916;-71
2024/03/20 16:51:28;;;;;;;;;;;;;;;;;;5130629;28;19915;-71
2024/03/20 16:53:54;;;;;;;;;;;;;;;;;;5130178;28;20279;-71
2024/03/20 16:56:20;;;;;;;;;;;;;;;;;;5128336;27;19914;-70
2024/03/20 16:58:46;;;;;;;;;;;;;;;;;;5109327;27;19951;-71
2024/03/20 17:01:12;;;;;;;;;;;;;;;;;;5113242;28;19915;-72
2024/03/20 17:03:38;;;;;;;;;;;;;;;;;;5130985;27;19914;-72
2024/03/20 17:06:04;;;;;;;;;;;;;;;;;;5130505;27;19912;-71
2024/03/20 17:08:30;;;;;;;;;;;;;;;;;;5130317;27;19920;-70
2024/03/20 17:10:56;;;;;;;;;;;;;;;;;;5131301;27;19914;-71
2024/03/20 17:13:22;;;;;;;;;;;;;;;;;;5130709;27;19908;-72
2024/03/20 17:15:49;;;;;;;;;;;;;;;;;;5130903;27;20385;-72
2024/03/20 17:18:15;;;;;;;;;;;;;;;;;;5130828;27;19908;-70
2024/03/20 17:20:41;;;;;;;;;;;;;;;;;;5130458;27;19912;-70
2024/03/20 17:23:07;;;;;;;;;;;;;;;;;;5129659;28;20367;-70
2024/03/20 17:25:34;;;;;;;;;;;;;;;;;;5130873;27;20387;-71
2024/03/20 17:28:00;;;;;;;;;;;;;;;;;;5129921;27;19926;-70
2024/03/20 17:30:26;;;;;;;;;;;;;;;;;;5131046;27;19908;-72
2024/03/20 17:32:52;;;;;;;;;;;;;;;;;;5129834;28;20010;-70
2024/03/20 17:35:20;;;;;;;;;;;;;;;;;;5130830;27;19912;-71
2024/03/20 17:37:48;;;;;;;;;;;;;;;;;;5129667;28;19908;-72
2024/03/20 17:40:14;;;;;;;;;;;;;;;;;;5120764;27;19908;-70